Terminal Aerodrome Forecast
Issued by NWS Burlington, VT

Home | Current Version | Previous Version | Text Only | Print | Product List | Glossary On
Versions: 1 2 3 4 5 6 7 8 9 10 11 12 13 14 15 16 17 18 19
000
FTUS41 KBTV 172332
TAFBTV
TAF
KBTV 172332Z 1800/1824 VRB03KT P6SM OVC200
     FM180800 15005KT P6SM VCSH SCT050 OVC100
     FM181200 16008KT P6SM -SHRA BKN022 OVC030
     FM182000 17011KT P6SM -SHRA SCT025 BKN040=

USA.gov is the U.S. government's official web portal to all federal, state and local government web resources and services.